Time;durP1;ratioP1;P1;durP2;ratioP2;P2;SDS_P1;SDS_P2;PMS_P1;PMS_P2;Temp;Humidity;BMP_temperature;BMP_pressure;BME280_temperature;BME280_humidity;BME280_pressure;Samples;Min_cycle;Max_cycle;Signal;HPM_P1;HPM_P2
2022/10/05 00:00:20;;;;;;;4.32;1.20;;;;;;;;;;4973921;28;20131;-63
2022/10/05 00:02:47;;;;;;;4.18;1.52;;;;;;;;;;4974040;28;20054;-64
2022/10/05 00:05:30;;;;;;;6.97;1.27;;;;;;;;;;4973799;28;20046;-63
2022/10/05 00:08:01;;;;;;;8.10;1.77;;;;;;;;;;4973975;28;20053;-64
2022/10/05 00:10:28;;;;;;;6.82;1.63;;;;;;;;;;4973631;28;20046;-64
2022/10/05 00:12:55;;;;;;;7.40;1.23;;;;;;;;;;4973677;28;20059;-63
2022/10/05 00:15:21;;;;;;;6.85;1.38;;;;;;;;;;4973567;28;20063;-63
2022/10/05 00:17:48;;;;;;;7.20;1.43;;;;;;;;;;4973502;28;20541;-63
2022/10/05 00:20:25;;;;;;;7.63;1.80;;;;;;;;;;4973474;28;20289;-63
2022/10/05 00:23:00;;;;;;;7.78;1.50;;;;;;;;;;4973279;28;20054;-64
2022/10/05 00:25:26;;;;;;;4.30;1.20;;;;;;;;;;4973567;28;20506;-63
2022/10/05 00:27:55;;;;;;;6.05;1.80;;;;;;;;;;4973525;28;20047;-63
2022/10/05 00:30:22;;;;;;;7.22;1.30;;;;;;;;;;4973421;28;20047;-64
2022/10/05 00:32:48;;;;;;;10.20;1.70;;;;;;;;;;4973374;28;20050;-63
2022/10/05 00:35:15;;;;;;;6.83;1.33;;;;;;;;;;4973233;28;20059;-63
2022/10/05 00:37:42;;;;;;;5.77;1.70;;;;;;;;;;4973564;28;20054;-63
2022/10/05 00:40:18;;;;;;;4.10;1.50;;;;;;;;;;4973345;28;20061;-63
2022/10/05 00:42:56;;;;;;;6.07;1.30;;;;;;;;;;4973200;28;20506;-64
2022/10/05 00:45:30;;;;;;;8.57;1.75;;;;;;;;;;4973040;28;20053;-63
2022/10/05 00:48:03;;;;;;;6.63;1.58;;;;;;;;;;4973080;28;20399;-64
2022/10/05 00:50:29;;;;;;;7.95;1.50;;;;;;;;;;4972965;28;20043;-63
2022/10/05 00:53:10;;;;;;;5.43;1.15;;;;;;;;;;4973038;28;20499;-64
2022/10/05 00:55:53;;;;;;;6.57;1.40;;;;;;;;;;4972993;28;20491;-64
2022/10/05 00:58:32;;;;;;;5.97;1.70;;;;;;;;;;4972975;28;20066;-64
2022/10/05 01:01:04;;;;;;;3.92;1.60;;;;;;;;;;4972870;28;20055;-64
2022/10/05 01:03:31;;;;;;;8.20;2.05;;;;;;;;;;4973033;28;20054;-64
2022/10/05 01:06:09;;;;;;;5.47;1.58;;;;;;;;;;4972845;28;20050;-63
2022/10/05 01:08:46;;;;;;;7.93;1.75;;;;;;;;;;4972880;28;20058;-63
2022/10/05 01:11:19;;;;;;;9.90;2.42;;;;;;;;;;4972902;28;20049;-64
2022/10/05 01:13:53;;;;;;;9.95;1.95;;;;;;;;;;4973100;28;20055;-63
2022/10/05 01:16:27;;;;;;;6.95;1.83;;;;;;;;;;4972847;28;20043;-63
2022/10/05 01:19:06;;;;;;;8.73;1.58;;;;;;;;;;4972903;28;20062;-63
2022/10/05 01:21:37;;;;;;;6.43;1.95;;;;;;;;;;4972787;28;20047;-63
2022/10/05 01:24:04;;;;;;;8.90;2.35;;;;;;;;;;4972833;28;20133;-63
2022/10/05 01:26:33;;;;;;;5.22;1.50;;;;;;;;;;4972631;28;20055;-64
2022/10/05 01:29:06;;;;;;;4.60;1.45;;;;;;;;;;4973112;28;20047;-64
2022/10/05 01:31:32;;;;;;;10.00;1.80;;;;;;;;;;4972692;28;20406;-64
2022/10/05 01:34:17;;;;;;;8.50;2.22;;;;;;;;;;4972989;28;20109;-64
2022/10/05 01:36:44;;;;;;;9.55;1.95;;;;;;;;;;4972985;28;20054;-64
2022/10/05 01:39:25;;;;;;;7.60;1.77;;;;;;;;;;4972883;28;20063;-64
2022/10/05 01:42:01;;;;;;;7.03;1.77;;;;;;;;;;4972596;28;20144;-64
2022/10/05 01:44:35;;;;;;;7.50;1.70;;;;;;;;;;4972850;28;20055;-64
2022/10/05 01:47:06;;;;;;;7.93;1.90;;;;;;;;;;4972602;28;20043;-64
2022/10/05 01:49:36;;;;;;;9.98;2.33;;;;;;;;;;4972830;28;20046;-64
2022/10/05 01:52:08;;;;;;;8.43;1.95;;;;;;;;;;4972625;28;20042;-63
2022/10/05 01:54:35;;;;;;;10.75;2.20;;;;;;;;;;4972422;28;20046;-64
2022/10/05 01:57:07;;;;;;;7.68;2.00;;;;;;;;;;4972497;28;20061;-63
2022/10/05 01:59:39;;;;;;;6.78;1.90;;;;;;;;;;4974637;28;20042;-64
2022/10/05 02:02:09;;;;;;;12.43;2.25;;;;;;;;;;4975962;28;20079;-64
2022/10/05 02:04:40;;;;;;;10.52;1.80;;;;;;;;;;4976091;28;20057;-64
2022/10/05 02:07:28;;;;;;;6.07;1.73;;;;;;;;;;4976142;28;20058;-63
2022/10/05 02:09:59;;;;;;;9.02;2.08;;;;;;;;;;4976038;28;20069;-64
2022/10/05 02:12:28;;;;;;;6.88;2.10;;;;;;;;;;4975757;28;20059;-64
2022/10/05 02:14:57;;;;;;;9.85;2.03;;;;;;;;;;4976117;28;20388;-63
2022/10/05 02:17:26;;;;;;;6.45;2.40;;;;;;;;;;4975910;28;20059;-63
2022/10/05 02:20:00;;;;;;;10.00;2.22;;;;;;;;;;4975940;28;20057;-64
2022/10/05 02:22:29;;;;;;;8.25;2.03;;;;;;;;;;4975908;28;20047;-63
2022/10/05 02:24:58;;;;;;;11.00;2.15;;;;;;;;;;4975785;28;20120;-64
2022/10/05 02:27:27;;;;;;;5.82;1.90;;;;;;;;;;4975586;28;20506;-63
2022/10/05 02:29:57;;;;;;;7.38;1.63;;;;;;;;;;4975399;28;20061;-64
2022/10/05 02:32:26;;;;;;;9.45;2.08;;;;;;;;;;4974391;28;20050;-64
2022/10/05 02:34:57;;;;;;;8.85;1.90;;;;;;;;;;4975600;28;20102;-64
2022/10/05 02:37:29;;;;;;;7.03;1.98;;;;;;;;;;4975776;28;20058;-64
2022/10/05 02:40:04;;;;;;;10.20;1.95;;;;;;;;;;4975256;28;20506;-64
2022/10/05 02:42:49;;;;;;;10.65;2.33;;;;;;;;;;4975468;28;20055;-63
2022/10/05 02:45:15;;;;;;;13.75;2.25;;;;;;;;;;4975514;28;20418;-64
2022/10/05 02:47:55;;;;;;;9.93;2.10;;;;;;;;;;4975136;28;20051;-63
2022/10/05 02:50:40;;;;;;;8.07;2.50;;;;;;;;;;4975503;28;20395;-63
2022/10/05 02:53:13;;;;;;;12.18;2.42;;;;;;;;;;4975053;28;20419;-64
2022/10/05 02:55:50;;;;;;;11.30;2.28;;;;;;;;;;4975202;28;20058;-64
2022/10/05 02:58:22;;;;;;;12.32;2.13;;;;;;;;;;4975125;28;20046;-63
2022/10/05 03:01:07;;;;;;;8.85;2.20;;;;;;;;;;4974937;28;20074;-64
2022/10/05 03:03:33;;;;;;;9.25;2.20;;;;;;;;;;4974920;28;20511;-64
2022/10/05 03:06:02;;;;;;;8.30;2.00;;;;;;;;;;4974677;28;20423;-64
2022/10/05 03:08:34;;;;;;;10.52;2.50;;;;;;;;;;4974753;28;20066;-63
2022/10/05 03:11:03;;;;;;;9.25;1.98;;;;;;;;;;4974725;28;20446;-64
2022/10/05 03:13:38;;;;;;;7.32;2.20;;;;;;;;;;4974698;28;20050;-64
2022/10/05 03:16:11;;;;;;;11.43;2.67;;;;;;;;;;4974766;28;20487;-64
2022/10/05 03:18:47;;;;;;;13.50;2.50;;;;;;;;;;4975226;28;20408;-63
2022/10/05 03:21:13;;;;;;;8.07;1.80;;;;;;;;;;4974754;28;20384;-63
2022/10/05 03:23:52;;;;;;;9.57;2.40;;;;;;;;;;4974561;28;20062;-63
2022/10/05 03:26:21;;;;;;;7.88;2.08;;;;;;;;;;4974437;28;20055;-64
2022/10/05 03:28:59;;;;;;;9.15;1.90;;;;;;;;;;4974500;28;20078;-64
2022/10/05 03:31:34;;;;;;;8.70;1.98;;;;;;;;;;4974628;28;20057;-63
2022/10/05 03:34:06;;;;;;;7.78;2.08;;;;;;;;;;4974586;28;20057;-64
2022/10/05 03:36:54;;;;;;;9.75;2.03;;;;;;;;;;4974524;28;20055;-63
2022/10/05 03:39:20;;;;;;;;;;;;;;;;;;4974605;28;20050;-64
2022/10/05 03:41:46;;;;;;;8.30;2.00;;;;;;;;;;4974225;28;20350;-64
2022/10/05 03:44:22;;;;;;;9.52;2.22;;;;;;;;;;4974120;28;20058;-64
2022/10/05 03:46:48;;;;;;;11.98;1.83;;;;;;;;;;4974166;28;20051;-64
2022/10/05 03:49:22;;;;;;;5.97;1.60;;;;;;;;;;4974277;28;20557;-64
2022/10/05 03:51:51;;;;;;;9.93;2.10;;;;;;;;;;4974384;28;20050;-64
2022/10/05 03:54:21;;;;;;;9.02;1.92;;;;;;;;;;4974082;28;20051;-64
2022/10/05 03:56:55;;;;;;;6.40;1.75;;;;;;;;;;4974185;28;20051;-64
2022/10/05 03:59:27;;;;;;;10.70;1.85;;;;;;;;;;4974098;28;20057;-63
2022/10/05 04:02:14;;;;;;;6.07;1.60;;;;;;;;;;4973868;28;20534;-63
2022/10/05 04:04:47;;;;;;;8.60;1.40;;;;;;;;;;4973842;28;20055;-63
2022/10/05 04:07:20;;;;;;;9.00;1.85;;;;;;;;;;4972533;28;20068;-63
2022/10/05 04:09:49;;;;;;;7.03;1.40;;;;;;;;;;4974131;28;20054;-63
2022/10/05 04:12:21;;;;;;;5.75;1.55;;;;;;;;;;4973629;28;20055;-63
2022/10/05 04:14:49;;;;;;;5.10;1.75;;;;;;;;;;4973829;28;20411;-63
2022/10/05 04:17:17;;;;;;;13.07;1.77;;;;;;;;;;4973892;28;20057;-63
2022/10/05 04:19:47;;;;;;;8.07;2.13;;;;;;;;;;4973549;28;20047;-63
2022/10/05 04:22:20;;;;;;;7.80;1.88;;;;;;;;;;4972905;28;20065;-63
2022/10/05 04:24:59;;;;;;;9.43;1.92;;;;;;;;;;4973902;28;20054;-63
2022/10/05 04:27:31;;;;;;;8.65;2.05;;;;;;;;;;4973302;28;20483;-63
2022/10/05 04:30:10;;;;;;;7.35;2.20;;;;;;;;;;4973446;28;20047;-63
2022/10/05 04:32:36;;;;;;;11.27;2.08;;;;;;;;;;4973322;28;20043;-63
2022/10/05 04:35:06;;;;;;;9.90;2.05;;;;;;;;;;4973465;28;20116;-64
2022/10/05 04:37:42;;;;;;;9.10;2.03;;;;;;;;;;4973296;28;20058;-63
2022/10/05 04:40:14;;;;;;;10.50;2.40;;;;;;;;;;4973262;28;20054;-63
2022/10/05 04:42:56;;;;;;;9.13;2.03;;;;;;;;;;4973099;28;20047;-63
2022/10/05 04:45:23;;;;;;;9.95;2.33;;;;;;;;;;4973115;28;20053;-64
2022/10/05 04:48:01;;;;;;;9.27;2.10;;;;;;;;;;4973264;28;20057;-63
2022/10/05 04:50:37;;;;;;;11.18;2.38;;;;;;;;;;4973235;28;20051;-63
2022/10/05 04:53:03;;;;;;;6.78;2.00;;;;;;;;;;4973477;28;20042;-63
2022/10/05 04:55:50;;;;;;;12.80;2.58;;;;;;;;;;4973203;28;20526;-64
2022/10/05 04:58:17;;;;;;;;;;;;;;;;;;4973348;28;20043;-64
2022/10/05 05:01:01;;;;;;;10.55;2.75;;;;;;;;;;4972907;28;19922;-64
2022/10/05 05:03:37;;;;;;;10.90;1.92;;;;;;;;;;4973285;28;20055;-64
2022/10/05 05:06:22;;;;;;;8.68;2.20;;;;;;;;;;4972798;28;20047;-64
2022/10/05 05:09:00;;;;;;;5.93;1.90;;;;;;;;;;4973139;28;20055;-63
2022/10/05 05:11:33;;;;;;;9.43;2.03;;;;;;;;;;4973063;28;20058;-64
2022/10/05 05:14:05;;;;;;;10.90;1.95;;;;;;;;;;4973026;28;20047;-63
2022/10/05 05:16:34;;;;;;;10.93;2.25;;;;;;;;;;4972734;28;20495;-64
2022/10/05 05:19:19;;;;;;;7.25;2.03;;;;;;;;;;4973159;28;20086;-64
2022/10/05 05:22:04;;;;;;;7.78;1.63;;;;;;;;;;4972870;28;20050;-63
2022/10/05 05:24:30;;;;;;;10.13;1.73;;;;;;;;;;4973114;28;20423;-64
2022/10/05 05:27:00;;;;;;;9.18;2.28;;;;;;;;;;4972834;28;20411;-64
2022/10/05 05:29:29;;;;;;;6.53;1.92;;;;;;;;;;4972896;28;20051;-64
2022/10/05 05:32:14;;;;;;;7.55;2.03;;;;;;;;;;4972590;28;20046;-64
2022/10/05 05:34:44;;;;;;;12.23;2.20;;;;;;;;;;4975218;28;20051;-64
2022/10/05 05:37:29;;;;;;;8.90;2.17;;;;;;;;;;4976480;28;20055;-63
2022/10/05 05:40:11;;;;;;;8.93;2.22;;;;;;;;;;4976757;28;20051;-64
2022/10/05 05:42:56;;;;;;;8.68;1.80;;;;;;;;;;4976601;28;20050;-63
2022/10/05 05:45:30;;;;;;;11.10;2.03;;;;;;;;;;4976557;28;20058;-63
2022/10/05 05:47:58;;;;;;;11.75;1.92;;;;;;;;;;4976216;28;20146;-64
2022/10/05 05:50:40;;;;;;;10.55;2.53;;;;;;;;;;4976497;28;20051;-63
2022/10/05 05:53:12;;;;;;;12.52;2.47;;;;;;;;;;4976710;28;20050;-64
2022/10/05 05:55:41;;;;;;;9.57;1.95;;;;;;;;;;4976457;28;20055;-63
2022/10/05 05:58:26;;;;;;;9.20;2.40;;;;;;;;;;4976119;28;20054;-63
2022/10/05 06:00:57;;;;;;;9.27;1.77;;;;;;;;;;4975938;28;20062;-63
2022/10/05 06:03:26;;;;;;;10.93;3.00;;;;;;;;;;4976059;28;20065;-64
2022/10/05 06:05:55;;;;;;;15.32;2.63;;;;;;;;;;4976234;28;20499;-63
2022/10/05 06:08:26;;;;;;;13.63;2.50;;;;;;;;;;4975833;28;20483;-63
2022/10/05 06:11:04;;;;;;;10.57;2.45;;;;;;;;;;4976187;28;20051;-63
2022/10/05 06:13:36;;;;;;;8.43;1.95;;;;;;;;;;4976148;28;20062;-63
2022/10/05 06:16:21;;;;;;;12.88;2.63;;;;;;;;;;4972548;28;20038;-63
2022/10/05 06:18:53;;;;;;;12.38;2.25;;;;;;;;;;4975230;28;20458;-63
2022/10/05 06:21:19;;;;;;;13.18;2.47;;;;;;;;;;4975204;28;20051;-63
2022/10/05 06:23:49;;;;;;;10.18;2.35;;;;;;;;;;4975647;28;20407;-64
2022/10/05 06:26:24;;;;;;;12.15;2.42;;;;;;;;;;4972770;28;20050;-63
2022/10/05 06:28:55;;;;;;;8.35;2.28;;;;;;;;;;4975320;28;20059;-64
2022/10/05 06:31:48;;;;;;;9.48;2.08;;;;;;;;;;4975648;28;20055;-63
2022/10/05 06:34:23;;;;;;;12.80;2.33;;;;;;;;;;4970900;28;20402;-64
2022/10/05 06:36:54;;;;;;;8.77;2.30;;;;;;;;;;4973823;28;20056;-64
2022/10/05 06:39:36;;;;;;;11.50;1.98;;;;;;;;;;4975054;28;20047;-64
2022/10/05 06:42:29;;;;;;;10.80;2.75;;;;;;;;;;4974907;28;20530;-64
2022/10/05 06:45:13;;;;;;;7.63;1.67;;;;;;;;;;4957521;28;20057;-63
2022/10/05 06:48:00;;;;;;;7.80;1.95;;;;;;;;;;4975066;28;20047;-65
2022/10/05 06:50:36;;;;;;;9.55;2.28;;;;;;;;;;4945729;28;20051;-64
2022/10/05 06:53:11;;;;;;;10.38;2.33;;;;;;;;;;4966073;28;20043;-64
2022/10/05 06:56:00;;;;;;;12.80;2.53;;;;;;;;;;4968768;28;20051;-64
2022/10/05 06:58:43;;;;;;;15.77;3.13;;;;;;;;;;4974066;28;20509;-63
2022/10/05 07:01:36;;;;;;;8.98;2.38;;;;;;;;;;4974960;28;20080;-63
2022/10/05 07:04:02;;;;;;;14.10;3.20;;;;;;;;;;4947549;28;20518;-63
2022/10/05 07:06:38;;;;;;;11.93;2.30;;;;;;;;;;4974621;28;20487;-64
2022/10/05 07:09:07;;;;;;;14.00;2.58;;;;;;;;;;4974762;28;20059;-63
2022/10/05 07:11:33;;;;;;;10.95;2.45;;;;;;;;;;4974761;28;20395;-63
2022/10/05 07:14:06;;;;;;;11.75;2.42;;;;;;;;;;4974788;28;20053;-63
2022/10/05 07:16:32;;;;;;;12.15;2.72;;;;;;;;;;4975011;28;20061;-63
2022/10/05 07:19:02;;;;;;;11.88;2.20;;;;;;;;;;4974727;28;20062;-63
2022/10/05 07:21:33;;;;;;;11.32;2.35;;;;;;;;;;4974561;28;20078;-63
2022/10/05 07:24:03;;;;;;;11.95;2.45;;;;;;;;;;4974951;28;20410;-64
2022/10/05 07:26:33;;;;;;;10.80;2.10;;;;;;;;;;4974671;28;20061;-63
2022/10/05 07:29:15;;;;;;;12.93;2.78;;;;;;;;;;4974739;28;20069;-63
2022/10/05 07:32:08;;;;;;;10.73;2.38;;;;;;;;;;4974699;28;20049;-63
2022/10/05 07:34:44;;;;;;;12.35;2.83;;;;;;;;;;4972579;28;20050;-63
2022/10/05 07:39:57;;;;;;;10.07;1.88;;;;;;;;;;4974282;28;20513;-63
2022/10/05 07:42:39;;;;;;;15.50;2.70;;;;;;;;;;4974215;28;20058;-63
2022/10/05 07:45:16;;;;;;;13.32;2.33;;;;;;;;;;4974345;28;20054;-64
2022/10/05 07:48:05;;;;;;;9.90;2.00;;;;;;;;;;4974104;28;20046;-64
2022/10/05 07:50:35;;;;;;;5.43;2.22;;;;;;;;;;4974426;28;20054;-63
2022/10/05 07:53:18;;;;;;;13.82;2.45;;;;;;;;;;4973933;28;20510;-63
2022/10/05 07:55:55;;;;;;;11.95;2.30;;;;;;;;;;4973880;28;20063;-64
2022/10/05 07:58:39;;;;;;;13.20;3.03;;;;;;;;;;4973513;28;20515;-63
2022/10/05 08:01:10;;;;;;;11.95;2.65;;;;;;;;;;4973753;28;20061;-64
2022/10/05 08:03:43;;;;;;;8.90;2.25;;;;;;;;;;4973964;28;20057;-63
2022/10/05 08:06:13;;;;;;;7.82;2.33;;;;;;;;;;4973951;28;20051;-64
2022/10/05 08:08:42;;;;;;;10.93;2.28;;;;;;;;;;4973810;28;20046;-63
2022/10/05 08:11:42;;;;;;;10.68;2.78;;;;;;;;;;4973583;28;20046;-64
2022/10/05 08:14:15;;;;;;;10.13;1.83;;;;;;;;;;4942917;28;20527;-64
2022/10/05 08:16:42;;;;;;;7.47;1.63;;;;;;;;;;4972198;28;20105;-64
2022/10/05 08:19:20;;;;;;;8.82;1.45;;;;;;;;;;4973604;28;20495;-64
2022/10/05 08:21:51;;;;;;;8.15;1.70;;;;;;;;;;4973728;28;20057;-64
2022/10/05 08:24:36;;;;;;;7.40;1.95;;;;;;;;;;4973830;28;20058;-64
2022/10/05 08:27:02;;;;;;;9.70;2.20;;;;;;;;;;4973809;28;20384;-64
2022/10/05 08:29:36;;;;;;;7.78;1.40;;;;;;;;;;4973586;28;20051;-63
2022/10/05 08:32:14;;;;;;;8.38;1.70;;;;;;;;;;4973441;28;20057;-64
2022/10/05 08:34:54;;;;;;;9.93;2.10;;;;;;;;;;4973349;28;20047;-63
2022/10/05 08:37:26;;;;;;;8.30;1.92;;;;;;;;;;4973652;28;20053;-63
2022/10/05 08:39:52;;;;;;;12.65;2.13;;;;;;;;;;4973379;28;20070;-63
2022/10/05 08:42:22;;;;;;;8.60;2.17;;;;;;;;;;4973170;28;20061;-63
2022/10/05 08:44:57;;;;;;;13.45;2.60;;;;;;;;;;4973175;28;20065;-63
2022/10/05 08:47:30;;;;;;;14.57;3.03;;;;;;;;;;4973218;28;20070;-63
2022/10/05 08:50:15;;;;;;;12.25;2.17;;;;;;;;;;4973403;28;20058;-63
2022/10/05 08:53:00;;;;;;;11.73;2.15;;;;;;;;;;4973511;28;20055;-63
2022/10/05 08:55:29;;;;;;;14.05;2.15;;;;;;;;;;4973099;28;20079;-63
2022/10/05 08:58:02;;;;;;;13.27;2.50;;;;;;;;;;4973241;28;20051;-63
2022/10/05 09:00:38;;;;;;;15.18;2.70;;;;;;;;;;4972916;28;20055;-63
2022/10/05 09:03:14;;;;;;;11.83;3.30;;;;;;;;;;4973060;28;20055;-63
2022/10/05 09:05:43;;;;;;;15.13;2.95;;;;;;;;;;4973216;28;20054;-63
2022/10/05 09:08:29;;;;;;;18.05;3.65;;;;;;;;;;4972773;28;20050;-64
2022/10/05 09:10:56;;;;;;;14.50;3.03;;;;;;;;;;4973218;28;20051;-63
2022/10/05 09:13:22;;;;;;;11.65;2.47;;;;;;;;;;4972605;28;20058;-63
2022/10/05 09:15:51;;;;;;;13.05;2.70;;;;;;;;;;4972802;28;20509;-63
2022/10/05 09:18:27;;;;;;;15.10;3.40;;;;;;;;;;4973194;28;20101;-63
2022/10/05 09:20:57;;;;;;;12.07;2.95;;;;;;;;;;4972853;28;20055;-65
2022/10/05 09:23:43;;;;;;;12.73;2.65;;;;;;;;;;4972762;28;20514;-64
2022/10/05 09:26:40;;;;;;;14.60;2.88;;;;;;;;;;4972742;28;20503;-64
2022/10/05 09:29:06;;;;;;;;;;;;;;;;;;4973308;28;20053;-65
2022/10/05 09:31:51;;;;;;;10.30;2.20;;;;;;;;;;4972626;28;19926;-65
2022/10/05 09:34:36;;;;;;;9.23;2.53;;;;;;;;;;4973072;28;20049;-65
2022/10/05 09:37:21;;;;;;;10.40;1.73;;;;;;;;;;4972560;28;20047;-64
2022/10/05 09:39:53;;;;;;;5.60;1.10;;;;;;;;;;4972619;28;20058;-64
2022/10/05 09:42:42;;;;;;;9.43;1.88;;;;;;;;;;4972572;28;20051;-64
2022/10/05 09:45:15;;;;;;;5.18;1.17;;;;;;;;;;4972858;28;20058;-64
2022/10/05 09:47:46;;;;;;;;;;;;;;;;;;4973181;28;20047;-64
2022/10/05 09:50:31;;;;;;;3.67;1.20;;;;;;;;;;4972981;28;19925;-63
2022/10/05 09:53:09;;;;;;;3.30;0.80;;;;;;;;;;4972803;28;20425;-64
2022/10/05 09:55:52;;;;;;;2.88;0.70;;;;;;;;;;4972503;28;20047;-64
2022/10/05 09:58:36;;;;;;;2.90;0.50;;;;;;;;;;4972743;28;20057;-64
2022/10/05 10:01:22;;;;;;;1.27;0.35;;;;;;;;;;4972473;28;20085;-64
2022/10/05 10:04:32;;;;;;;0.95;0.40;;;;;;;;;;4972762;28;20058;-64
2022/10/05 10:07:01;;;;;;;1.27;0.38;;;;;;;;;;4950261;28;20059;-64
2022/10/05 10:09:42;;;;;;;2.83;0.43;;;;;;;;;;4972566;28;20055;-65
2022/10/05 10:12:21;;;;;;;0.88;0.40;;;;;;;;;;4972159;28;20422;-64
2022/10/05 10:15:23;;;;;;;0.75;0.30;;;;;;;;;;4972222;28;20491;-64
2022/10/05 10:17:49;;;;;;;1.70;0.55;;;;;;;;;;4931550;29;20056;-64
2022/10/05 10:20:29;;;;;;;1.90;0.30;;;;;;;;;;4955818;28;20051;-64
2022/10/05 10:23:05;;;;;;;2.13;0.60;;;;;;;;;;4975710;28;20058;-64
2022/10/05 10:25:50;;;;;;;4.63;0.50;;;;;;;;;;4976105;28;20046;-64
2022/10/05 10:28:26;;;;;;;1.98;0.50;;;;;;;;;;4975675;28;20050;-64
2022/10/05 10:31:11;;;;;;;1.47;0.60;;;;;;;;;;4975910;28;20117;-64
2022/10/05 10:33:57;;;;;;;4.05;0.57;;;;;;;;;;4975477;28;20058;-64
2022/10/05 10:36:34;;;;;;;3.08;0.40;;;;;;;;;;4975725;28;20047;-64
2022/10/05 10:39:19;;;;;;;2.83;0.80;;;;;;;;;;4975732;28;20069;-65
2022/10/05 10:41:45;;;;;;;2.45;0.47;;;;;;;;;;4975534;28;20054;-64
2022/10/05 10:44:24;;;;;;;3.50;0.70;;;;;;;;;;4975278;28;20059;-64
2022/10/05 10:47:15;;;;;;;3.15;0.70;;;;;;;;;;4975769;28;20076;-64
2022/10/05 10:50:00;;;;;;;3.42;0.80;;;;;;;;;;4975464;28;20406;-63
2022/10/05 10:52:45;;;;;;;3.90;1.17;;;;;;;;;;4975519;28;20065;-64
2022/10/05 10:55:12;;;;;;;0.98;0.30;;;;;;;;;;4975632;28;20047;-65
2022/10/05 10:57:47;;;;;;;0.98;0.20;;;;;;;;;;4975124;28;20407;-65
2022/10/05 11:00:32;;;;;;;0.88;0.30;;;;;;;;;;4975046;28;20055;-64
2022/10/05 11:02:58;;;;;;;1.15;0.08;;;;;;;;;;4975181;28;20131;-64
2022/10/05 11:05:37;;;;;;;2.08;0.20;;;;;;;;;;4975198;28;20055;-64
2022/10/05 11:08:33;;;;;;;0.75;0.32;;;;;;;;;;4975174;28;20073;-64
2022/10/05 11:11:13;;;;;;;1.92;0.73;;;;;;;;;;4975116;28;20051;-64
2022/10/05 11:13:50;;;;;;;1.55;0.70;;;;;;;;;;4974906;28;20487;-64
2022/10/05 11:16:35;;;;;;;2.10;0.40;;;;;;;;;;4974690;28;20491;-64
2022/10/05 11:19:05;;;;;;;4.18;0.43;;;;;;;;;;4974796;28;20055;-64
2022/10/05 11:21:39;;;;;;;4.88;0.60;;;;;;;;;;4974573;28;20495;-64
2022/10/05 11:24:17;;;;;;;4.70;0.47;;;;;;;;;;4974876;28;20054;-64
2022/10/05 11:27:02;;;;;;;6.05;0.85;;;;;;;;;;4974875;28;20061;-64
2022/10/05 11:29:48;;;;;;;2.97;0.68;;;;;;;;;;4974484;28;20054;-64
2022/10/05 11:32:33;;;;;;;5.45;0.75;;;;;;;;;;4974560;28;20497;-64
2022/10/05 11:34:59;;;;;;;2.58;0.50;;;;;;;;;;4974470;28;20051;-65
2022/10/05 11:37:35;;;;;;;3.33;0.80;;;;;;;;;;4974626;28;20057;-64
2022/10/05 11:40:19;;;;;;;4.68;0.40;;;;;;;;;;4974322;28;20087;-64
2022/10/05 11:43:03;;;;;;;1.23;0.25;;;;;;;;;;4974400;28;20053;-64
2022/10/05 11:45:44;;;;;;;0.50;0.17;;;;;;;;;;4974378;28;20067;-64
2022/10/05 11:48:28;;;;;;;0.45;0.20;;;;;;;;;;4974412;28;20403;-64
2022/10/05 11:51:24;;;;;;;1.40;0.35;;;;;;;;;;4974306;28;20416;-64
2022/10/05 11:54:03;;;;;;;1.70;0.30;;;;;;;;;;4936459;28;20563;-64
2022/10/05 11:56:59;;;;;;;2.65;0.40;;;;;;;;;;4960774;28;20488;-63
2022/10/05 11:59:33;;;;;;;1.07;0.20;;;;;;;;;;4952927;28;20051;-64
2022/10/05 12:02:23;;;;;;;2.28;0.40;;;;;;;;;;4974261;28;20053;-63
2022/10/05 12:05:12;;;;;;;4.13;0.50;;;;;;;;;;4974143;28;20047;-63
2022/10/05 12:07:57;;;;;;;2.25;0.47;;;;;;;;;;4973975;28;20051;-64
2022/10/05 12:10:33;;;;;;;1.83;0.30;;;;;;;;;;4973766;28;20050;-64
2022/10/05 12:13:12;;;;;;;2.45;0.50;;;;;;;;;;4973667;28;20051;-63
2022/10/05 12:15:42;;;;;;;0.93;0.43;;;;;;;;;;4973684;28;20487;-64
2022/10/05 12:18:24;;;;;;;1.50;0.20;;;;;;;;;;4973812;28;20054;-64
2022/10/05 12:20:51;;;;;;;4.88;0.50;;;;;;;;;;4973811;28;20053;-63
2022/10/05 12:23:36;;;;;;;2.95;0.38;;;;;;;;;;4973537;28;20057;-64
2022/10/05 12:26:31;;;;;;;2.78;0.63;;;;;;;;;;4973785;28;20422;-64
2022/10/05 12:29:01;;;;;;;2.47;0.35;;;;;;;;;;4965015;28;20050;-65
2022/10/05 12:31:28;;;;;;;3.60;0.70;;;;;;;;;;4973568;28;20053;-63
2022/10/05 12:33:58;;;;;;;1.25;0.30;;;;;;;;;;4973563;28;20051;-63
2022/10/05 12:36:43;;;;;;;6.10;0.47;;;;;;;;;;4973340;28;20508;-63
2022/10/05 12:39:35;;;;;;;2.28;0.30;;;;;;;;;;4973465;28;20043;-63
2022/10/05 12:42:22;;;;;;;4.50;0.70;;;;;;;;;;4973035;28;20498;-63
2022/10/05 12:44:54;;;;;;;4.85;0.88;;;;;;;;;;4966394;28;20050;-63
2022/10/05 12:47:40;;;;;;;1.92;0.50;;;;;;;;;;4973182;28;20047;-63
2022/10/05 12:50:12;;;;;;;3.83;0.45;;;;;;;;;;4973131;28;20490;-63
2022/10/05 12:52:42;;;;;;;0.75;0.30;;;;;;;;;;4973097;28;20074;-62
2022/10/05 12:55:08;;;;;;;2.53;0.90;;;;;;;;;;4973392;28;20409;-63
2022/10/05 12:57:41;;;;;;;2.40;1.20;;;;;;;;;;4973118;28;20058;-63
2022/10/05 13:00:07;;;;;;;4.75;1.52;;;;;;;;;;4973191;28;20054;-63
2022/10/05 13:02:34;;;;;;;1.77;0.68;;;;;;;;;;4973123;28;20080;-63
2022/10/05 13:05:09;;;;;;;2.03;0.80;;;;;;;;;;4973295;28;20074;-63
2022/10/05 13:07:54;;;;;;;2.17;0.43;;;;;;;;;;4972852;28;20055;-63
2022/10/05 13:10:21;;;;;;;2.22;0.90;;;;;;;;;;4973209;28;20053;-63
2022/10/05 13:13:01;;;;;;;3.45;2.05;;;;;;;;;;4973286;28;20061;-63
2022/10/05 13:15:45;;;;;;;4.90;2.50;;;;;;;;;;4973066;28;20047;-63
2022/10/05 13:18:30;;;;;;;6.00;3.30;;;;;;;;;;4973060;28;20047;-63
2022/10/05 13:21:05;;;;;;;4.65;2.25;;;;;;;;;;4972887;28;20054;-63
2022/10/05 13:23:38;;;;;;;5.28;1.65;;;;;;;;;;4972749;28;20043;-63
2022/10/05 13:26:08;;;;;;;7.38;1.98;;;;;;;;;;4972699;28;20065;-63
2022/10/05 13:28:50;;;;;;;4.43;2.00;;;;;;;;;;4972958;28;20054;-63
2022/10/05 13:31:22;;;;;;;7.05;1.38;;;;;;;;;;4972710;28;20491;-63
2022/10/05 13:34:07;;;;;;;7.10;1.13;;;;;;;;;;4972857;28;20124;-63
2022/10/05 13:36:41;;;;;;;6.95;1.60;;;;;;;;;;4972615;28;20407;-63
2022/10/05 13:39:20;;;;;;;6.03;1.60;;;;;;;;;;4973076;28;20058;-62
2022/10/05 13:41:55;;;;;;;5.18;1.35;;;;;;;;;;4972610;28;20134;-63
2022/10/05 13:44:22;;;;;;;5.63;1.48;;;;;;;;;;4972826;28;20053;-63
2022/10/05 13:46:51;;;;;;;5.32;1.20;;;;;;;;;;4972974;28;20050;-63
2022/10/05 13:49:25;;;;;;;4.47;1.35;;;;;;;;;;4972369;28;20043;-63
2022/10/05 13:51:57;;;;;;;3.67;0.95;;;;;;;;;;4972539;28;20061;-63
2022/10/05 13:54:38;;;;;;;4.95;1.30;;;;;;;;;;4972709;28;20061;-63
2022/10/05 13:57:28;;;;;;;1.85;0.70;;;;;;;;;;4976424;28;20055;-63
2022/10/05 14:00:01;;;;;;;4.03;1.60;;;;;;;;;;4971191;28;20707;-63
2022/10/05 14:02:29;;;;;;;3.97;1.30;;;;;;;;;;4976465;28;20058;-63
2022/10/05 14:04:57;;;;;;;2.17;0.52;;;;;;;;;;4976015;28;20546;-63
2022/10/05 14:07:24;;;;;;;4.72;1.63;;;;;;;;;;4976060;28;20688;-63
2022/10/05 14:09:50;;;;;;;2.60;1.42;;;;;;;;;;4975822;28;20042;-63
2022/10/05 14:12:21;;;;;;;3.75;1.02;;;;;;;;;;4975912;28;20491;-64
2022/10/05 14:14:51;;;;;;;2.25;0.85;;;;;;;;;;4976082;28;20053;-64
2022/10/05 14:17:36;;;;;;;1.58;0.55;;;;;;;;;;4976151;28;20129;-64
2022/10/05 14:20:33;;;;;;;2.08;0.40;;;;;;;;;;4976116;28;20050;-64
2022/10/05 14:23:01;;;;;;;3.97;0.65;;;;;;;;;;4967570;28;20141;-64
2022/10/05 14:25:29;;;;;;;3.55;0.80;;;;;;;;;;4975732;28;20521;-64
2022/10/05 14:27:58;;;;;;;4.88;0.90;;;;;;;;;;4975849;28;20419;-64
2022/10/05 14:30:26;;;;;;;4.35;1.00;;;;;;;;;;4975589;28;20051;-64
2022/10/05 14:32:55;;;;;;;4.07;1.08;;;;;;;;;;4975766;28;20046;-64
2022/10/05 14:35:24;;;;;;;4.53;0.70;;;;;;;;;;4975502;28;20454;-64
2022/10/05 14:37:58;;;;;;;2.38;0.65;;;;;;;;;;4975787;28;20051;-64
2022/10/05 14:40:25;;;;;;;5.13;1.05;;;;;;;;;;4975582;28;20046;-63
2022/10/05 14:42:51;;;;;;;4.43;1.23;;;;;;;;;;4975468;28;20053;-64
2022/10/05 14:45:19;;;;;;;6.00;1.20;;;;;;;;;;4975706;28;20054;-64
2022/10/05 14:47:50;;;;;;;3.63;0.88;;;;;;;;;;4975560;28;20119;-63
2022/10/05 14:50:19;;;;;;;5.38;1.10;;;;;;;;;;4975386;28;20055;-63
2022/10/05 14:53:02;;;;;;;6.57;1.50;;;;;;;;;;4975324;28;20525;-63
2022/10/05 14:55:28;;;;;;;9.02;1.70;;;;;;;;;;4975182;28;20054;-63
2022/10/05 14:58:04;;;;;;;6.57;1.50;;;;;;;;;;4975038;28;20081;-64
2022/10/05 15:00:37;;;;;;;9.70;1.92;;;;;;;;;;4975774;28;20063;-64
2022/10/05 15:03:17;;;;;;;9.27;1.60;;;;;;;;;;4975355;28;20047;-64
2022/10/05 15:05:44;;;;;;;4.72;1.35;;;;;;;;;;4974678;28;20517;-63
2022/10/05 15:08:10;;;;;;;4.70;1.17;;;;;;;;;;4974783;28;20047;-64
2022/10/05 15:10:41;;;;;;;3.92;1.00;;;;;;;;;;4975204;28;20063;-63
2022/10/05 15:13:12;;;;;;;5.88;1.23;;;;;;;;;;4974766;28;20042;-64
2022/10/05 15:15:41;;;;;;;5.97;0.88;;;;;;;;;;4974916;28;20046;-64
2022/10/05 15:18:23;;;;;;;5.22;1.30;;;;;;;;;;4974859;28;20071;-64
2022/10/05 15:21:02;;;;;;;6.28;1.50;;;;;;;;;;4974664;28;20051;-64
2022/10/05 15:23:46;;;;;;;7.10;1.50;;;;;;;;;;4974903;28;20053;-64
2022/10/05 15:26:18;;;;;;;9.13;1.73;;;;;;;;;;4974680;28;20121;-64
2022/10/05 15:29:03;;;;;;;7.90;1.95;;;;;;;;;;4974926;28;20062;-64
2022/10/05 15:31:29;;;;;;;6.50;1.38;;;;;;;;;;4974878;28;20058;-64